Time;durP1;ratioP1;P1;durP2;ratioP2;P2;SDS_P1;SDS_P2;PMS_P1;PMS_P2;Temp;Humidity;BMP_temperature;BMP_pressure;BME280_temperature;BME280_humidity;BME280_pressure;Samples;Min_cycle;Max_cycle;Signal;HPM_P1;HPM_P2
2023/02/18 00:01:01;;;;;;;4.80;1.80;;;;;;;7.01;91.54;99339.16;107333;1258;88962;-59
2023/02/18 00:03:38;;;;;;;6.70;1.80;;;;;;;7.01;91.30;99347.37;107321;1255;94900;-57
2023/02/18 00:06:27;;;;;;;6.60;1.60;;;;;;;7.08;91.50;99355.78;107247;1257;79960;-48
2023/02/18 00:09:14;;;;;;;5.10;1.80;;;;;;;7.06;91.35;99354.20;107367;1254;82524;-60
2023/02/18 00:11:52;;;;;;;5.10;1.80;;;;;;;7.01;91.01;99359.03;107331;1254;100255;-61
2023/02/18 00:14:32;;;;;;;9.40;1.90;;;;;;;6.95;90.98;99368.92;107340;1255;87243;-62
2023/02/18 00:17:08;;;;;;;3.40;1.40;;;;;;;6.87;90.89;99376.48;107314;1256;93171;-61
2023/02/18 00:19:50;;;;;;;4.50;1.70;;;;;;;6.83;90.62;99372.77;107359;1259;80756;-60
2023/02/18 00:22:34;;;;;;;5.10;1.60;;;;;;;6.79;90.47;99382.21;107316;1258;81710;-61
2023/02/18 00:25:21;;;;;;;6.00;1.80;;;;;;;6.78;90.53;99385.02;107295;1254;98382;-48
2023/02/18 00:28:05;;;;;;;6.10;1.60;;;;;;;6.82;90.16;99381.42;107318;1254;87605;-57
2023/02/18 00:30:43;;;;;;;6.50;1.70;;;;;;;6.83;89.83;99389.17;107330;1255;93836;-61
2023/02/18 00:33:24;;;;;;;5.00;1.60;;;;;;;6.80;89.73;99389.59;107376;1259;78253;-60
2023/02/18 00:36:06;;;;;;;7.60;1.80;;;;;;;6.75;89.45;99389.48;107347;1254;81619;-61
2023/02/18 00:38:46;;;;;;;4.90;1.70;;;;;;;6.75;89.32;99392.03;107362;1254;99300;-62
2023/02/18 00:41:29;;;;;;;6.80;2.10;;;;;;;6.75;89.17;99394.89;107222;1255;89690;-56
2023/02/18 00:44:12;;;;;;;9.30;1.80;;;;;;;6.74;88.95;99388.73;107273;1257;94480;-59
2023/02/18 00:47:03;;;;;;;7.70;1.80;;;;;;;6.76;88.74;99387.05;107287;1257;82802;-60
2023/02/18 00:49:50;;;;;;;7.20;1.90;;;;;;;6.77;88.38;99384.98;107328;1256;82448;-61
2023/02/18 00:52:36;;;;;;;5.90;1.80;;;;;;;6.78;87.93;99389.88;107176;1257;97561;-60
2023/02/18 00:55:15;;;;;;;7.20;1.60;;;;;;;6.73;87.37;99391.73;107311;1260;88495;-58
2023/02/18 00:57:56;;;;;;;8.80;1.90;;;;;;;6.67;86.49;99394.58;107319;1258;92259;-58
2023/02/18 01:00:37;;;;;;;8.60;1.80;;;;;;;6.63;86.66;99395.32;107284;1257;81487;-57
2023/02/18 01:03:13;;;;;;;9.60;1.90;;;;;;;6.62;86.49;99396.80;107259;1255;81218;-56
2023/02/18 01:05:50;;;;;;;5.40;1.70;;;;;;;6.62;86.14;99400.05;107273;1256;99346;-61
2023/02/18 01:08:25;;;;;;;8.30;1.80;;;;;;;6.61;85.81;99400.14;107282;1260;89614;-56
2023/02/18 01:11:06;;;;;;;8.10;1.90;;;;;;;6.60;85.41;99405.12;107377;1258;94406;-57
2023/02/18 01:13:43;;;;;;;9.10;2.20;;;;;;;6.60;85.64;99413.98;107287;1256;79383;-59
2023/02/18 01:16:25;;;;;;;10.10;2.80;;;;;;;6.56;85.18;99397.59;107298;1256;82573;-61
2023/02/18 01:19:14;;;;;;;8.00;1.60;;;;;;;6.49;84.99;99398.22;107239;1258;99373;-58
2023/02/18 01:21:56;;;;;;;10.50;1.90;;;;;;;6.40;84.16;99393.77;107317;1257;87826;-57
2023/02/18 01:24:38;;;;;;;7.00;1.50;;;;;;;6.40;84.35;99401.35;107288;1257;95746;-53
2023/02/18 01:27:29;;;;;;;6.00;1.60;;;;;;;6.34;83.44;99401.70;107309;1256;79698;-56
2023/02/18 01:30:10;;;;;;;6.70;1.60;;;;;;;6.36;83.99;99398.26;107292;1260;83109;-58
2023/02/18 01:32:47;;;;;;;8.50;2.20;;;;;;;6.36;84.03;99393.05;107342;1258;99211;-58
2023/02/18 01:35:23;;;;;;;7.20;2.00;;;;;;;6.36;83.92;99392.86;107341;1257;87961;-56
2023/02/18 01:37:59;;;;;;;8.20;1.70;;;;;;;6.35;83.45;99387.63;107303;1256;94534;-54
2023/02/18 01:40:50;;;;;;;6.90;2.00;;;;;;;6.35;83.58;99389.13;107267;1260;78877;-61
2023/02/18 01:43:35;;;;;;;7.90;1.70;;;;;;;6.34;83.55;99382.83;107356;1258;82450;-62
2023/02/18 01:46:19;;;;;;;7.30;1.20;;;;;;;6.32;83.19;99386.40;107311;1254;99647;-62
2023/02/18 01:48:58;;;;;;;6.90;1.60;;;;;;;6.31;83.38;99385.48;107334;1254;87757;-51
2023/02/18 01:51:44;;;;;;;7.40;2.20;;;;;;;6.31;83.52;99384.78;107337;1254;94346;-52
2023/02/18 01:54:34;;;;;;;4.80;2.10;;;;;;;6.33;83.06;99386.09;107334;1254;80791;-61
2023/02/18 01:57:19;;;;;;;10.00;2.20;;;;;;;6.36;82.75;99379.08;107334;1254;82583;-62
2023/02/18 02:00:06;;;;;;;6.20;1.50;;;;;;;6.40;82.94;99383.11;107344;1254;99947;-52
2023/02/18 02:02:52;;;;;;;12.60;1.60;;;;;;;6.41;82.80;99385.11;107301;1258;88614;-55
2023/02/18 02:05:33;;;;;;;8.20;2.50;;;;;;;6.39;82.63;99375.89;107339;1254;95161;-56
2023/02/18 02:08:21;;;;;;;7.60;1.80;;;;;;;6.39;82.27;99376.95;107358;1257;79813;-57
2023/02/18 02:11:19;;;;;;;9.50;1.80;;;;;;;6.36;82.12;99374.70;107336;1257;82726;-59
2023/02/18 02:14:28;;;;;;;7.20;2.00;;;;;;;6.26;81.84;99369.05;107308;1254;99692;-56
2023/02/18 02:17:25;;;;;;;7.50;1.80;;;;;;;6.21;81.73;99369.84;107350;1254;88145;-57
2023/02/18 02:20:49;;;;;;;6.60;1.60;;;;;;;6.19;81.81;99374.56;107335;1254;93457;-54
2023/02/18 02:23:56;;;;;;;;;;;;;;;6.15;81.61;99352.80;107380;1257;80119;-60
2023/02/18 02:27:20;;;;;;;8.60;1.60;;;;;;;6.12;81.22;99354.71;107366;1254;81943;-61
2023/02/18 02:30:42;;;;;;;6.10;1.50;;;;;;;6.08;80.49;99347.02;107360;1254;97627;-55
2023/02/18 02:33:51;;;;;;;9.00;2.00;;;;;;;6.04;80.44;99354.88;107192;1255;88568;-58
2023/02/18 02:36:39;;;;;;;10.10;1.80;;;;;;;5.98;80.51;99355.70;107338;1257;95302;-57
2023/02/18 02:39:35;;;;;;;11.40;2.90;;;;;;;6.00;80.55;99362.79;107345;1254;80070;-60
2023/02/18 02:42:27;;;;;;;9.80;2.10;;;;;;;6.03;80.83;99370.20;107360;1254;82553;-60
2023/02/18 02:45:18;;;;;;;7.00;1.90;;;;;;;6.05;80.88;99370.94;107360;1257;97995;-56
2023/02/18 02:48:01;;;;;;;12.60;2.20;;;;;;;6.06;80.32;99372.15;107314;1254;88257;-58
2023/02/18 02:50:45;;;;;;;10.50;2.20;;;;;;;6.01;80.28;99379.34;107358;1260;94618;-58
2023/02/18 02:53:31;;;;;;;12.80;2.40;;;;;;;5.93;80.41;99378.26;107340;1254;78980;-59
2023/02/18 02:56:14;;;;;;;12.90;2.50;;;;;;;5.91;80.21;99392.11;107347;1254;81959;-56
2023/02/18 02:59:04;;;;;;;7.60;1.70;;;;;;;5.91;80.22;99395.86;107330;1259;99861;-57
2023/02/18 03:02:01;;;;;;;9.30;2.00;;;;;;;5.93;80.22;99387.94;107341;1254;88916;-58
2023/02/18 03:05:17;;;;;;;10.70;2.40;;;;;;;5.97;80.35;99392.27;107331;1254;95245;-60
2023/02/18 03:08:22;;;;;;;7.30;2.10;;;;;;;6.00;79.91;99394.78;107472;1254;79411;-62
2023/02/18 03:11:06;;;;;;;8.10;1.80;;;;;;;6.06;80.07;99396.64;107380;1258;82166;-58
2023/02/18 03:14:04;;;;;;;8.70;2.00;;;;;;;6.06;79.83;99393.86;107334;1254;99990;-56
2023/02/18 03:16:50;;;;;;;9.30;2.90;;;;;;;6.05;79.53;99401.89;107366;1254;88292;-57
2023/02/18 03:19:39;;;;;;;11.10;1.60;;;;;;;6.04;79.71;99407.09;107378;1257;94641;-55
2023/02/18 03:22:30;;;;;;;7.70;1.70;;;;;;;6.02;79.69;99404.84;107331;1254;80894;-56
2023/02/18 03:25:09;;;;;;;11.00;2.00;;;;;;;6.01;79.55;99412.17;107400;1254;82695;-60
2023/02/18 03:28:01;;;;;;;9.50;2.20;;;;;;;6.02;79.42;99412.23;107359;1254;98545;-60
2023/02/18 03:30:52;;;;;;;11.00;2.60;;;;;;;6.07;78.96;99415.84;107389;1254;88230;-61
2023/02/18 03:33:39;;;;;;;6.30;1.60;;;;;;;6.07;79.14;99400.96;107380;1255;94988;-57
2023/02/18 03:36:15;;;;;;;10.90;2.40;;;;;;;6.09;78.97;99404.48;107374;1258;78576;-60
2023/02/18 03:39:00;;;;;;;11.80;2.50;;;;;;;6.08;79.13;99422.76;107410;1254;82380;-59
2023/02/18 03:41:45;;;;;;;8.10;2.30;;;;;;;6.08;79.09;99427.48;107341;1254;98111;-60
2023/02/18 03:44:30;;;;;;;8.80;1.70;;;;;;;6.05;78.61;99430.83;107338;1254;88566;-57
2023/02/18 03:47:21;;;;;;;6.40;1.80;;;;;;;6.01;78.61;99430.57;107332;1254;95136;-57
2023/02/18 03:50:06;;;;;;;10.80;1.90;;;;;;;6.02;78.47;99442.83;107317;1254;79354;-57
2023/02/18 03:52:49;;;;;;;8.70;1.90;;;;;;;6.03;78.57;99448.48;107339;1253;82001;-57
2023/02/18 03:55:31;;;;;;;8.70;1.70;;;;;;;6.05;78.34;99453.15;107304;1254;97906;-61
2023/02/18 03:58:11;;;;;;;12.60;2.80;;;;;;;6.05;78.28;99452.89;107357;1254;88095;-61
2023/02/18 04:00:53;;;;;;;11.10;2.10;;;;;;;6.04;78.46;99448.64;107354;1254;93705;-59
2023/02/18 04:03:40;;;;;;;13.50;2.20;;;;;;;6.04;78.28;99453.54;107293;1254;80008;-60
2023/02/18 04:06:22;;;;;;;10.30;1.80;;;;;;;6.01;78.26;99459.93;107317;1253;82102;-60
2023/02/18 04:09:07;;;;;;;10.10;1.80;;;;;;;5.98;78.06;99461.23;107350;1254;98311;-61
2023/02/18 04:11:49;;;;;;;20.50;4.50;;;;;;;5.94;78.24;99466.77;107367;1254;89418;-61
2023/02/18 04:14:38;;;;;;;8.70;2.10;;;;;;;5.91;77.68;99462.91;107353;1254;94257;-55
2023/02/18 04:17:18;;;;;;;9.90;2.40;;;;;;;5.90;78.00;99465.36;107366;1254;79989;-52
2023/02/18 04:20:00;;;;;;;6.70;1.60;;;;;;;5.90;78.17;99460.10;107364;1254;81583;-62
2023/02/18 04:22:43;;;;;;;11.10;2.00;;;;;;;5.92;78.30;99464.17;107360;1254;98643;-62
2023/02/18 04:25:30;;;;;;;10.40;2.10;;;;;;;5.91;78.22;99470.38;107367;1254;87554;-52
2023/02/18 04:28:10;;;;;;;12.20;2.40;;;;;;;5.93;78.02;99473.21;107388;1254;94287;-51
2023/02/18 04:30:55;;;;;;;10.40;2.00;;;;;;;5.93;78.06;99472.27;107321;1254;79727;-56
2023/02/18 04:33:38;;;;;;;8.50;1.80;;;;;;;5.90;77.63;99463.49;107377;1254;81144;-57
2023/02/18 04:36:20;;;;;;;9.00;2.50;;;;;;;5.87;77.92;99467.96;107338;1254;98413;-56
2023/02/18 04:39:02;;;;;;;11.40;2.00;;;;;;;5.84;77.86;99464.77;107354;1254;88111;-62
2023/02/18 04:41:49;;;;;;;7.70;1.70;;;;;;;5.82;77.88;99459.64;107354;1254;95118;-60
2023/02/18 04:44:33;;;;;;;11.00;2.10;;;;;;;5.80;78.16;99480.39;107325;1254;80295;-61
2023/02/18 04:47:21;;;;;;;8.00;2.10;;;;;;;5.78;78.14;99472.01;107372;1254;81929;-62
2023/02/18 04:50:04;;;;;;;12.60;2.10;;;;;;;5.77;78.03;99472.91;107380;1254;96783;-54
2023/02/18 04:52:51;;;;;;;10.00;1.90;;;;;;;5.78;77.83;99472.52;106058;1254;1750279;-56
2023/02/18 04:55:35;;;;;;;13.60;2.10;;;;;;;5.77;77.83;99466.86;107336;1255;95439;-58
2023/02/18 04:58:18;;;;;;;10.40;2.20;;;;;;;5.76;77.92;99470.52;107327;1254;78332;-57
2023/02/18 05:00:58;;;;;;;11.10;2.00;;;;;;;5.75;77.90;99476.83;107327;1254;80891;-62
2023/02/18 05:03:34;;;;;;;10.70;2.00;;;;;;;5.72;77.76;99475.20;107378;1254;99354;-56
2023/02/18 05:06:09;;;;;;;11.00;1.80;;;;;;;5.70;77.95;99478.98;107339;1254;89849;-49
2023/02/18 05:08:55;;;;;;;6.70;2.40;;;;;;;5.68;77.74;99477.41;107384;1254;95027;-53
2023/02/18 05:11:41;;;;;;;8.50;2.00;;;;;;;5.64;77.41;99472.88;107384;1254;80969;-56
2023/02/18 05:14:27;;;;;;;9.60;1.90;;;;;;;5.66;77.62;99476.44;107354;1254;82921;-56
2023/02/18 05:17:12;;;;;;;7.20;1.60;;;;;;;5.69;77.56;99480.90;107378;1254;99126;-57
2023/02/18 05:19:54;;;;;;;8.50;1.90;;;;;;;5.71;77.61;99480.61;107384;1254;88406;-62
2023/02/18 05:22:36;;;;;;;11.60;3.30;;;;;;;5.70;77.38;99481.80;107333;1257;94935;-58
2023/02/18 05:25:11;;;;;;;10.40;2.10;;;;;;;5.68;77.60;99492.02;107376;1254;77928;-61
2023/02/18 05:27:50;;;;;;;9.50;2.30;;;;;;;5.68;77.34;99498.49;107334;1254;82939;-60
2023/02/18 05:30:38;;;;;;;8.50;2.00;;;;;;;5.65;77.25;99485.98;107345;1254;100311;-61
2023/02/18 05:33:13;;;;;;;13.00;2.80;;;;;;;5.58;77.24;99491.85;107379;1254;89036;-60
2023/02/18 05:35:56;;;;;;;9.50;1.80;;;;;;;5.54;77.38;99500.05;107376;1254;94520;-58
2023/02/18 05:38:41;;;;;;;12.20;2.10;;;;;;;5.50;77.46;99503.33;107373;1257;80752;-56
2023/02/18 05:41:20;;;;;;;11.20;2.10;;;;;;;5.49;77.55;99509.32;107355;1254;82218;-57
2023/02/18 05:47:07;;;;;;;12.70;3.20;;;;;;;5.48;77.47;99521.41;107362;1254;89557;-56
2023/02/18 05:49:44;;;;;;;12.50;2.40;;;;;;;5.49;77.35;99509.77;107350;1254;95966;-62
2023/02/18 05:52:26;;;;;;;12.50;2.20;;;;;;;5.51;77.22;99516.41;107350;1254;80466;-62
2023/02/18 05:55:06;;;;;;;11.20;2.60;;;;;;;5.51;77.34;99515.50;107398;1254;83382;-60
2023/02/18 05:57:45;;;;;;;8.60;1.80;;;;;;;5.50;77.40;99513.70;107399;1253;99413;-60
2023/02/18 06:00:24;;;;;;;9.10;1.60;;;;;;;5.48;77.23;99516.63;107342;1254;88088;-60
2023/02/18 06:03:09;;;;;;;6.60;1.50;;;;;;;5.49;77.40;99520.41;107318;1254;93955;-59
2023/02/18 06:05:51;;;;;;;8.40;1.60;;;;;;;5.50;77.17;99510.35;107357;1254;81218;-58
2023/02/18 06:08:34;;;;;;;9.90;2.00;;;;;;;5.55;77.28;99516.51;107380;1255;80996;-61
2023/02/18 06:11:10;;;;;;;16.00;2.60;;;;;;;5.59;77.24;99521.57;107376;1255;100231;-62
2023/02/18 06:13:49;;;;;;;11.00;2.30;;;;;;;5.64;76.98;99523.48;107391;1254;88535;-56
2023/02/18 06:16:32;;;;;;;14.40;3.10;;;;;;;5.64;77.00;99520.25;107332;1253;94728;-58
2023/02/18 06:19:14;;;;;;;9.40;2.30;;;;;;;5.66;76.47;99516.50;107396;1254;78826;-60
2023/02/18 06:21:54;;;;;;;9.80;2.40;;;;;;;5.68;76.24;99524.41;107368;1254;80816;-61
2023/02/18 06:24:36;;;;;;;9.20;1.70;;;;;;;5.69;76.34;99541.25;107390;1254;98616;-58
2023/02/18 06:27:16;;;;;;;8.50;1.60;;;;;;;5.68;76.37;99533.77;107386;1257;89497;-56
2023/02/18 06:29:58;;;;;;;11.00;2.40;;;;;;;5.66;76.66;99540.00;107352;1257;95619;-52
2023/02/18 06:32:42;;;;;;;7.00;1.80;;;;;;;5.68;76.66;99538.42;107386;1255;80281;-52
2023/02/18 06:35:19;;;;;;;10.30;2.40;;;;;;;5.68;76.70;99543.67;107368;1257;83128;-58
2023/02/18 06:38:01;;;;;;;9.90;2.60;;;;;;;5.70;76.72;99542.92;107368;1254;99325;-58
2023/02/18 06:40:37;;;;;;;11.10;1.90;;;;;;;5.74;76.39;99545.48;107358;1254;88615;-60
2023/02/18 06:43:15;;;;;;;12.90;2.30;;;;;;;5.74;76.57;99558.66;107354;1253;94903;-60
2023/02/18 06:45:55;;;;;;;11.50;2.30;;;;;;;5.75;76.22;99563.41;107396;1254;80049;-61
2023/02/18 06:48:43;;;;;;;10.70;2.20;;;;;;;5.73;76.11;99562.89;107339;1254;81601;-62
2023/02/18 06:51:20;;;;;;;6.90;1.90;;;;;;;5.74;76.13;99560.61;107360;1255;100013;-61
2023/02/18 06:54:04;;;;;;;12.50;2.30;;;;;;;5.77;76.40;99572.27;107374;1254;88714;-58
2023/02/18 06:56:49;;;;;;;11.90;3.00;;;;;;;5.79;76.23;99572.73;107352;1254;94764;-59
2023/02/18 06:59:36;;;;;;;11.70;1.80;;;;;;;5.79;76.36;99579.00;107350;1255;80353;-60
2023/02/18 07:02:19;;;;;;;8.50;1.50;;;;;;;5.81;75.68;99576.30;107330;1254;81939;-62
2023/02/18 07:04:56;;;;;;;5.60;1.70;;;;;;;5.88;75.82;99573.98;107363;1254;99916;-62
2023/02/18 07:07:38;;;;;;;9.40;2.20;;;;;;;6.02;75.87;99569.79;107338;1254;87488;-61
2023/02/18 07:10:30;;;;;;;7.10;1.90;;;;;;;6.06;75.76;99566.42;107385;1257;94906;-52
2023/02/18 07:13:12;;;;;;;8.90;2.00;;;;;;;6.11;75.43;99573.30;107375;1257;79196;-58
2023/02/18 07:15:50;;;;;;;11.00;1.80;;;;;;;6.18;75.38;99574.22;107383;1254;83207;-62
2023/02/18 07:18:30;;;;;;;9.00;2.40;;;;;;;6.31;75.15;99578.34;107391;1254;98211;-58
2023/02/18 07:21:10;;;;;;;7.80;2.10;;;;;;;6.43;74.54;99582.36;107373;1254;88757;-58
2023/02/18 07:23:47;;;;;;;9.50;2.20;;;;;;;6.82;75.01;99580.84;107371;1254;95415;-54
2023/02/18 07:26:22;;;;;;;10.80;2.30;;;;;;;6.88;74.43;99574.55;107358;1254;79316;-57
2023/02/18 07:29:03;;;;;;;11.10;2.30;;;;;;;6.83;74.31;99587.46;107411;1254;81889;-59
2023/02/18 07:31:41;;;;;;;10.20;2.40;;;;;;;6.80;73.97;99589.08;107346;1254;100100;-60
2023/02/18 07:34:26;;;;;;;11.40;2.50;;;;;;;6.84;73.97;99590.38;107380;1254;89058;-60
2023/02/18 07:37:11;;;;;;;10.40;2.60;;;;;;;7.13;74.39;99592.41;107320;1255;95274;-61
2023/02/18 07:39:51;;;;;;;9.70;2.40;;;;;;;7.55;73.60;99588.02;107360;1254;79270;-59
2023/02/18 07:42:31;;;;;;;12.10;2.30;;;;;;;7.75;72.76;99590.13;107391;1257;82508;-55
2023/02/18 07:45:11;;;;;;;9.50;2.20;;;;;;;8.29;72.91;99591.04;107369;1254;99391;-51
2023/02/18 07:47:58;;;;;;;9.70;2.00;;;;;;;8.17;72.14;99591.11;107391;1254;87257;-58
2023/02/18 07:50:43;;;;;;;12.10;2.30;;;;;;;8.04;71.99;99592.36;107349;1254;92864;-60
2023/02/18 07:53:27;;;;;;;9.20;2.20;;;;;;;8.75;71.58;99596.77;107446;1254;79145;-60
2023/02/18 07:56:09;;;;;;;9.70;2.40;;;;;;;8.53;70.88;99601.46;107374;1254;82426;-58
2023/02/18 07:58:54;;;;;;;9.90;2.00;;;;;;;8.28;70.54;99606.59;107386;1253;99608;-61
2023/02/18 08:01:36;;;;;;;14.70;2.40;;;;;;;7.94;70.17;99607.30;107415;1253;88316;-62
2023/02/18 08:04:23;;;;;;;10.40;2.40;;;;;;;7.81;70.13;99603.64;107356;1255;95491;-56
2023/02/18 08:07:01;;;;;;;8.30;2.00;;;;;;;7.69;70.20;99608.34;107323;1259;80042;-55
2023/02/18 08:09:44;;;;;;;10.50;2.20;;;;;;;7.62;70.10;99600.73;107318;1255;82077;-56
2023/02/18 08:12:24;;;;;;;10.20;2.40;;;;;;;7.68;70.49;99605.06;107323;1254;99291;-57
2023/02/18 08:15:04;;;;;;;6.90;1.70;;;;;;;7.75;70.49;99607.21;107336;1254;89809;-62
2023/02/18 08:17:44;;;;;;;10.80;2.50;;;;;;;7.70;70.19;99595.96;107379;1254;94357;-61
2023/02/18 08:20:27;;;;;;;14.30;3.10;;;;;;;7.85;70.09;99607.94;107354;1254;78665;-62
2023/02/18 08:23:04;;;;;;;8.40;2.20;;;;;;;7.91;70.21;99601.02;107407;1254;83048;-60
2023/02/18 08:25:41;;;;;;;5.80;1.80;;;;;;;8.04;70.29;99608.54;107384;1254;99563;-57
2023/02/18 08:28:17;;;;;;;9.50;1.90;;;;;;;8.11;70.03;99608.54;107378;1254;86453;-59
2023/02/18 08:30:55;;;;;;;12.10;2.10;;;;;;;8.60;70.13;99602.89;107396;1253;95504;-55
2023/02/18 08:33:37;;;;;;;8.80;2.20;;;;;;;8.95;69.39;99598.11;107466;1253;79595;-58
2023/02/18 08:36:13;;;;;;;;;;;;;;;8.79;68.08;99588.27;107406;1255;83061;-57
2023/02/18 08:39:00;;;;;;;10.60;2.60;;;;;;;8.83;68.06;99594.48;107400;1254;99463;-58
2023/02/18 08:41:46;;;;;;;11.00;2.50;;;;;;;8.84;67.02;99590.70;107236;1254;88896;-58
2023/02/18 08:44:31;;;;;;;9.90;2.80;;;;;;;8.81;65.89;99603.33;107351;1254;94861;-57
2023/02/18 08:47:15;;;;;;;9.10;2.90;;;;;;;8.61;67.17;99600.98;107358;1253;80542;-56
2023/02/18 08:49:52;;;;;;;9.80;2.90;;;;;;;8.67;67.09;99602.95;107361;1254;80775;-59
2023/02/18 08:52:34;;;;;;;9.70;2.40;;;;;;;8.81;67.23;99615.13;107360;1254;99630;-59
2023/02/18 08:55:12;;;;;;;9.70;2.00;;;;;;;8.72;65.52;99620.66;107401;1254;87931;-62
2023/02/18 08:57:51;;;;;;;8.10;2.70;;;;;;;8.64;66.14;99623.16;107352;1254;95911;-60
2023/02/18 09:00:26;;;;;;;9.00;2.70;;;;;;;8.66;65.54;99619.13;107410;1254;79720;-54
2023/02/18 09:03:02;;;;;;;10.10;2.70;;;;;;;8.68;65.64;99620.23;107399;1254;83374;-54
2023/02/18 09:05:43;;;;;;;8.10;2.30;;;;;;;8.74;65.57;99618.98;107383;1254;97546;-59
2023/02/18 09:08:26;;;;;;;10.10;2.30;;;;;;;9.03;65.74;99619.78;107407;1254;87859;-57
2023/02/18 09:11:05;;;;;;;;;;;;;;;9.02;65.57;99620.82;107395;1254;93609;-58
2023/02/18 09:13:45;;;;;;;12.70;2.60;;;;;;;8.99;65.17;99617.56;107381;1254;78800;-56
2023/02/18 09:16:24;;;;;;;8.70;2.30;;;;;;;8.94;64.78;99634.03;107383;1254;82265;-57
2023/02/18 09:19:09;;;;;;;8.30;2.50;;;;;;;8.89;64.88;99626.41;107444;1254;99916;-61
2023/02/18 09:21:52;;;;;;;9.60;2.60;;;;;;;8.87;64.63;99633.06;107394;1254;87173;-61
2023/02/18 09:24:37;;;;;;;9.50;2.80;;;;;;;8.72;64.42;99633.34;107388;1255;95804;-62
2023/02/18 09:27:22;;;;;;;8.90;2.10;;;;;;;8.58;64.64;99643.71;107402;1254;78474;-61
2023/02/18 09:30:03;;;;;;;7.30;1.90;;;;;;;8.54;64.54;99642.36;107356;1254;83243;-55
2023/02/18 09:32:39;;;;;;;8.30;2.30;;;;;;;8.51;64.75;99650.52;107373;1254;100057;-57
2023/02/18 09:35:16;;;;;;;8.20;1.80;;;;;;;8.43;64.51;99648.88;107388;1254;91216;-61
2023/02/18 09:37:51;;;;;;;12.10;2.50;;;;;;;8.40;65.14;99651.98;107362;1254;94970;-61
2023/02/18 09:40:42;;;;;;;9.10;1.70;;;;;;;8.40;65.21;99649.84;107349;1254;79433;-58
2023/02/18 09:43:29;;;;;;;7.90;2.30;;;;;;;8.30;65.04;99651.58;107310;1256;82385;-61
2023/02/18 09:46:18;;;;;;;9.70;2.20;;;;;;;8.20;64.52;99653.73;107366;1253;97421;-62
2023/02/18 09:49:04;;;;;;;9.70;2.40;;;;;;;8.11;64.49;99655.79;107363;1254;89197;-61
2023/02/18 09:51:44;;;;;;;11.30;2.60;;;;;;;8.01;64.22;99654.89;107238;1254;97430;-62
2023/02/18 09:54:28;;;;;;;12.40;2.50;;;;;;;7.93;64.64;99669.70;107331;1254;79393;-59
2023/02/18 09:57:06;;;;;;;7.80;2.20;;;;;;;7.96;64.73;99668.01;107406;1255;81921;-59
2023/02/18 09:59:47;;;;;;;12.10;3.00;;;;;;;7.94;64.89;99679.56;107372;1254;96322;-59
2023/02/18 10:02:28;;;;;;;11.20;2.60;;;;;;;7.91;65.16;99678.05;107339;1254;88550;-58
2023/02/18 10:05:16;;;;;;;10.60;2.40;;;;;;;7.86;65.08;99676.27;107382;1254;94885;-54
2023/02/18 10:08:04;;;;;;;8.30;2.00;;;;;;;7.80;64.96;99685.15;107377;1254;77978;-55
2023/02/18 10:10:49;;;;;;;12.40;2.60;;;;;;;7.70;65.14;99674.79;107392;1254;82741;-55
2023/02/18 10:13:36;;;;;;;11.00;2.70;;;;;;;7.70;64.73;99683.13;107401;1253;97818;-58
2023/02/18 10:16:18;;;;;;;9.70;2.60;;;;;;;7.66;65.07;99688.21;107369;1257;89329;-57
2023/02/18 10:19:02;;;;;;;10.90;3.10;;;;;;;7.62;64.65;99685.84;107369;1254;95006;-59
2023/02/18 10:21:44;;;;;;;9.30;3.00;;;;;;;7.68;64.95;99686.92;107371;1254;79954;-61
2023/02/18 10:24:29;;;;;;;13.30;2.50;;;;;;;7.78;64.94;99682.90;107417;1254;83599;-59
2023/02/18 10:27:10;;;;;;;;;;;;;;;7.98;65.03;99692.89;107366;1254;99624;-63
2023/02/18 10:29:57;;;;;;;12.50;2.20;;;;;;;8.07;64.87;99688.45;107399;1254;88000;-56
2023/02/18 10:32:38;;;;;;;9.80;2.40;;;;;;;8.14;64.69;99679.34;107381;1254;95249;-56
2023/02/18 10:35:24;;;;;;;12.90;3.00;;;;;;;8.23;64.83;99688.86;107414;1255;76420;-57
2023/02/18 10:38:14;;;;;;;11.70;2.40;;;;;;;8.25;64.09;99673.70;107400;1254;82629;-52
2023/02/18 10:41:04;;;;;;;12.00;2.30;;;;;;;8.11;63.79;99678.48;107353;1257;99655;-55
2023/02/18 10:43:50;;;;;;;9.10;2.20;;;;;;;8.12;63.99;99678.06;107391;1255;89870;-57
2023/02/18 10:46:35;;;;;;;9.60;2.20;;;;;;;8.14;64.02;99677.89;107376;1254;94515;-57
2023/02/18 10:49:31;;;;;;;10.80;2.50;;;;;;;8.17;64.15;99679.16;107364;1254;78233;-58
2023/02/18 10:52:22;;;;;;;8.60;2.40;;;;;;;8.27;64.11;99673.61;107396;1254;81967;-59
2023/02/18 10:55:09;;;;;;;13.00;2.90;;;;;;;8.35;64.26;99663.52;107364;1254;98793;-63
2023/02/18 10:57:58;;;;;;;11.00;3.00;;;;;;;8.34;64.37;99670.32;107400;1254;89858;-63
2023/02/18 11:00:45;;;;;;;12.70;3.00;;;;;;;8.40;64.23;99665.75;107364;1254;95015;-62
2023/02/18 11:03:23;;;;;;;8.60;2.40;;;;;;;8.30;63.67;99666.30;107407;1253;79504;-61
2023/02/18 11:06:05;;;;;;;10.10;2.70;;;;;;;8.23;64.19;99664.77;107450;1254;82375;-62
2023/02/18 11:08:46;;;;;;;10.20;3.10;;;;;;;8.17;63.84;99664.86;107401;1254;99537;-63
2023/02/18 11:11:31;;;;;;;13.40;2.60;;;;;;;8.11;64.13;99664.20;107350;1254;88449;-58
2023/02/18 11:14:18;;;;;;;13.80;2.50;;;;;;;8.04;64.19;99663.08;107411;1254;96814;-62
2023/02/18 11:17:10;;;;;;;10.40;2.40;;;;;;;8.04;64.55;99668.27;107386;1254;79335;-62
2023/02/18 11:19:51;;;;;;;10.30;2.60;;;;;;;8.04;64.71;99665.27;107254;1254;82673;-62
2023/02/18 11:22:29;;;;;;;11.80;3.40;;;;;;;8.11;64.87;99665.02;107375;1254;99292;-59
2023/02/18 11:25:24;;;;;;;9.10;2.20;;;;;;;8.13;64.89;99664.09;107384;1254;89113;-62
2023/02/18 11:28:04;;;;;;;12.60;2.70;;;;;;;8.16;65.02;99657.28;107362;1254;95763;-61
2023/02/18 11:30:47;;;;;;;13.20;2.70;;;;;;;8.15;65.02;99663.08;107385;1254;77748;-62
2023/02/18 11:33:34;;;;;;;10.50;3.10;;;;;;;8.17;65.26;99661.39;107440;1253;79243;-52
2023/02/18 11:36:30;;;;;;;14.30;3.30;;;;;;;8.23;65.36;99653.64;107402;1254;99988;-57
2023/02/18 11:39:20;;;;;;;11.10;2.90;;;;;;;8.28;65.53;99651.48;107414;1257;87642;-61
2023/02/18 11:41:59;;;;;;;10.60;2.70;;;;;;;8.25;65.07;99645.55;107372;1255;95544;-62
2023/02/18 11:44:41;;;;;;;7.60;2.20;;;;;;;8.22;65.43;99650.80;107373;1254;78404;-58
2023/02/18 11:47:34;;;;;;;10.20;2.80;;;;;;;8.25;65.20;99644.46;107368;1254;83257;-56
2023/02/18 11:50:24;;;;;;;13.40;2.60;;;;;;;8.23;65.15;99643.08;107378;1254;98733;-62
2023/02/18 11:53:28;;;;;;;12.60;3.20;;;;;;;8.21;64.78;99638.10;107377;1254;87445;-59
2023/02/18 11:56:06;;;;;;;9.30;2.50;;;;;;;8.25;64.42;99634.01;107327;1254;95655;-57
2023/02/18 11:58:47;;;;;;;13.30;3.00;;;;;;;8.27;64.74;99635.06;107404;1254;79180;-58
2023/02/18 12:01:36;;;;;;;11.50;2.90;;;;;;;8.31;64.90;99629.58;107360;1254;81035;-61
2023/02/18 12:04:27;;;;;;;11.90;2.60;;;;;;;8.35;65.00;99624.70;107366;1254;100148;-57
2023/02/18 12:07:19;;;;;;;11.00;2.70;;;;;;;8.37;64.57;99625.40;107389;1254;89173;-59
2023/02/18 12:09:59;;;;;;;13.00;3.30;;;;;;;8.43;64.93;99624.21;107383;1254;94929;-59
2023/02/18 12:12:46;;;;;;;9.50;2.40;;;;;;;8.58;64.99;99622.34;107363;1253;78018;-58
2023/02/18 12:15:37;;;;;;;10.10;2.90;;;;;;;8.71;65.00;99616.27;107371;1255;82507;-54
2023/02/18 12:18:46;;;;;;;13.70;3.50;;;;;;;8.69;64.34;99608.96;107355;1254;98637;-59
2023/02/18 12:21:31;;;;;;;;;;;;;;;8.53;63.78;99599.30;107423;1254;87874;-60
2023/02/18 12:24:14;;;;;;;;;;;;;;;8.55;63.99;99612.58;107402;1254;93537;-59
2023/02/18 12:27:08;;;;;;;12.40;3.70;;;;;;;8.62;64.05;99614.50;107421;1254;79732;-60
2023/02/18 12:30:04;;;;;;;12.30;3.50;;;;;;;8.56;63.95;99616.32;107408;1256;83483;-57
2023/02/18 12:32:50;;;;;;;13.80;2.90;;;;;;;8.50;63.64;99605.46;107336;1254;99504;-60
2023/02/18 12:35:49;;;;;;;11.00;2.50;;;;;;;8.51;64.02;99606.05;107365;1254;87364;-59
2023/02/18 12:38:49;;;;;;;9.20;2.20;;;;;;;8.50;63.90;99598.71;107388;1254;95872;-61
2023/02/18 12:41:39;;;;;;;6.60;2.50;;;;;;;8.38;63.65;99598.70;107385;1254;79432;-61
2023/02/18 12:44:36;;;;;;;9.90;2.70;;;;;;;8.42;63.71;99600.48;107368;1255;81817;-61
2023/02/18 12:47:53;;;;;;;8.80;2.60;;;;;;;8.50;64.01;99588.52;107370;1253;99607;-62
2023/02/18 12:50:49;;;;;;;12.70;2.40;;;;;;;8.61;63.88;99579.20;107355;1254;89722;-60
2023/02/18 12:53:45;;;;;;;11.50;2.80;;;;;;;8.68;63.64;99586.30;106997;1254;449693;-61
2023/02/18 12:56:52;;;;;;;12.30;2.80;;;;;;;8.76;63.65;99581.33;107384;1255;76516;-63